Time;durP1;ratioP1;P1;durP2;ratioP2;P2;SDS_P1;SDS_P2;PMS_P1;PMS_P2;Temp;Humidity;BMP_temperature;BMP_pressure;BME280_temperature;BME280_humidity;BME280_pressure;Samples;Min_cycle;Max_cycle;Signal;HPM_P1;HPM_P2
2023/05/09 00:00:14;;;;;;;13.03;11.37;;;21.10;60.60;;;;;;5065646;28;20655;-53
2023/05/09 00:02:40;;;;;;;14.00;12.50;;;21.10;60.00;;;;;;5060742;28;20549;-51
2023/05/09 00:05:09;;;;;;;12.53;11.33;;;21.00;60.50;;;;;;5068302;28;20204;-52
2023/05/09 00:07:34;;;;;;;14.07;12.63;;;20.90;60.70;;;;;;5059308;28;20195;-54
2023/05/09 00:10:00;;;;;;;13.63;11.90;;;20.70;61.50;;;;;;5060647;28;20445;-51
2023/05/09 00:12:27;;;;;;;12.90;11.70;;;20.60;62.30;;;;;;5063404;28;20628;-50
2023/05/09 00:14:53;;;;;;;13.80;12.57;;;20.60;62.00;;;;;;5071289;28;20192;-53
2023/05/09 00:17:21;;;;;;;13.87;12.60;;;20.60;62.20;;;;;;5059497;28;20932;-50
2023/05/09 00:19:51;;;;;;;12.83;11.60;;;20.60;62.40;;;;;;5058798;28;20423;-55
2023/05/09 00:22:20;;;;;;;12.60;11.30;;;20.50;62.60;;;;;;5059019;28;20450;-52
2023/05/09 00:24:46;;;;;;;13.67;12.27;;;20.40;62.80;;;;;;5068634;28;20434;-53
2023/05/09 00:27:11;;;;;;;13.83;12.40;;;20.40;62.60;;;;;;5062738;28;20848;-50
2023/05/09 00:29:37;;;;;;;14.60;13.20;;;20.40;62.60;;;;;;5063450;28;20491;-52
2023/05/09 00:32:02;;;;;;;13.23;11.73;;;20.50;62.50;;;;;;5066573;28;20199;-51
2023/05/09 00:34:28;;;;;;;13.83;12.30;;;20.50;62.10;;;;;;5066943;28;20673;-50
2023/05/09 00:36:54;;;;;;;12.83;11.33;;;20.40;62.40;;;;;;5063140;28;20220;-52
2023/05/09 00:39:20;;;;;;;13.93;12.67;;;20.40;62.50;;;;;;5063235;28;20196;-50
2023/05/09 00:41:45;;;;;;;14.53;12.10;;;20.40;62.40;;;;;;5065315;28;20724;-51
2023/05/09 00:44:11;;;;;;;12.77;11.57;;;20.30;62.80;;;;;;5055733;28;20489;-54
2023/05/09 00:46:37;;;;;;;12.57;11.37;;;20.30;62.60;;;;;;5070164;28;20207;-50
2023/05/09 00:49:04;;;;;;;13.30;11.80;;;20.30;62.50;;;;;;5063045;28;20196;-51
2023/05/09 00:51:31;;;;;;;14.73;12.23;;;20.40;62.50;;;;;;5065969;28;20533;-49
2023/05/09 00:53:57;;;;;;;13.33;12.03;;;20.50;61.90;;;;;;5068098;28;20527;-50
2023/05/09 00:56:23;;;;;;;12.40;11.20;;;20.60;61.90;;;;;;5069711;28;20996;-53
2023/05/09 00:58:49;;;;;;;12.40;11.20;;;20.40;62.60;;;;;;5064918;28;20512;-53
2023/05/09 01:01:15;;;;;;;15.83;12.40;;;20.40;62.80;;;;;;5065876;28;20196;-50
2023/05/09 01:03:42;;;;;;;13.10;11.90;;;20.40;62.40;;;;;;5066770;28;20467;-51
2023/05/09 01:06:32;;;;;;;15.37;11.43;;;20.30;62.20;;;;;;5070314;28;20450;-51
2023/05/09 01:09:07;;;;;;;11.60;10.53;;;20.20;63.40;;;;;;5066930;28;20474;-53
2023/05/09 01:11:42;;;;;;;12.57;11.37;;;20.20;63.10;;;;;;5070381;28;20517;-53
2023/05/09 01:14:43;;;;;;;11.57;10.57;;;20.10;63.40;;;;;;5068418;28;20504;-52
2023/05/09 01:17:26;;;;;;;12.43;10.67;;;20.20;63.30;;;;;;4969317;28;20522;-54
2023/05/09 01:20:19;;;;;;;13.00;11.90;;;20.40;63.10;;;;;;5058489;28;20443;-50
2023/05/09 01:22:54;;;;;;;12.10;10.90;;;20.50;62.20;;;;;;5060382;28;20457;-55
2023/05/09 01:25:35;;;;;;;12.90;11.63;;;20.60;61.50;;;;;;5059741;28;20475;-53
2023/05/09 01:28:12;;;;;;;12.67;11.47;;;20.70;61.00;;;;;;5064527;28;20446;-51
2023/05/09 01:30:42;;;;;;;15.57;11.70;;;20.80;60.70;;;;;;5066638;28;21269;-50
2023/05/09 01:33:09;;;;;;;13.10;11.60;;;20.80;60.20;;;;;;5057902;28;21353;-51
2023/05/09 01:35:38;;;;;;;13.63;11.40;;;20.90;60.00;;;;;;5057067;28;20929;-53
2023/05/09 01:38:11;;;;;;;15.63;11.63;;;20.90;59.90;;;;;;5065304;28;20801;-50
2023/05/09 01:40:38;;;;;;;13.37;12.17;;;21.00;59.70;;;;;;5062050;28;20469;-51
2023/05/09 01:43:07;;;;;;;13.27;11.97;;;21.00;59.40;;;;;;5060613;28;21087;-54
2023/05/09 01:45:35;;;;;;;15.60;11.30;;;21.00;59.30;;;;;;5061606;28;21199;-54
2023/05/09 01:48:01;;;;;;;13.47;12.17;;;21.00;58.90;;;;;;5058668;28;20462;-55
2023/05/09 01:50:29;;;;;;;11.87;9.80;;;21.00;58.70;;;;;;5057731;28;20434;-53
2023/05/09 01:52:57;;;;;;;11.17;9.87;;;20.90;58.70;;;;;;5064073;28;20454;-52
2023/05/09 01:55:32;;;;;;;12.73;11.47;;;20.90;58.90;;;;;;5065212;28;20481;-52
2023/05/09 01:57:58;;;;;;;12.90;11.30;;;20.90;58.60;;;;;;5064375;28;21009;-54
2023/05/09 02:00:25;;;;;;;12.20;11.10;;;20.90;58.50;;;;;;5069664;28;20529;-54
2023/05/09 02:02:54;;;;;;;12.20;11.10;;;20.90;58.50;;;;;;5069652;28;20815;-50
2023/05/09 02:05:24;;;;;;;13.10;11.90;;;20.90;58.00;;;;;;5066074;28;20432;-52
2023/05/09 02:07:49;;;;;;;12.40;11.17;;;20.80;57.70;;;;;;5063777;28;20426;-54
2023/05/09 02:10:16;;;;;;;12.40;11.40;;;20.70;57.80;;;;;;5062777;28;20459;-53
2023/05/09 02:12:41;;;;;;;13.20;11.90;;;20.60;57.70;;;;;;5070319;28;20662;-54
2023/05/09 02:15:07;;;;;;;14.07;12.80;;;20.50;58.10;;;;;;5068872;28;20433;-54
2023/05/09 02:17:33;;;;;;;13.63;12.23;;;20.40;58.30;;;;;;5065532;28;20224;-53
2023/05/09 02:19:59;;;;;;;14.73;12.97;;;20.40;58.90;;;;;;5068046;28;20450;-52
2023/05/09 02:22:24;;;;;;;13.77;12.47;;;20.40;59.10;;;;;;5070050;28;20235;-53
2023/05/09 02:24:50;;;;;;;16.00;14.50;;;20.40;59.30;;;;;;5070932;28;20246;-51
2023/05/09 02:27:17;;;;;;;16.53;13.30;;;20.40;59.30;;;;;;5068960;28;20192;-51
2023/05/09 02:29:47;;;;;;;13.87;12.67;;;20.30;59.40;;;;;;5068291;28;20218;-50
2023/05/09 02:32:20;;;;;;;17.20;12.53;;;20.30;59.60;;;;;;5050480;28;20473;-53
2023/05/09 02:34:47;;;;;;;13.27;12.07;;;20.30;59.70;;;;;;5069349;28;20453;-51
2023/05/09 02:37:13;;;;;;;13.50;11.87;;;20.30;59.60;;;;;;5068862;28;21181;-53
2023/05/09 02:39:39;;;;;;;16.00;12.77;;;20.20;59.60;;;;;;5069594;28;20434;-55
2023/05/09 02:42:08;;;;;;;11.13;9.90;;;20.30;59.80;;;;;;5067694;28;21372;-54
2023/05/09 02:44:34;;;;;;;12.37;11.30;;;20.30;59.70;;;;;;5062804;28;20188;-54
2023/05/09 02:47:01;;;;;;;12.70;11.57;;;20.30;59.80;;;;;;5070557;28;20492;-52
2023/05/09 02:49:27;;;;;;;13.43;12.07;;;20.30;59.70;;;;;;5073574;28;20191;-51
2023/05/09 02:51:52;;;;;;;11.80;10.80;;;20.30;59.80;;;;;;5077308;28;20449;-52
2023/05/09 02:54:18;;;;;;;11.60;10.60;;;20.20;59.50;;;;;;5073165;28;20238;-53
2023/05/09 02:56:44;;;;;;;12.70;11.57;;;20.30;60.00;;;;;;5073097;28;20220;-51
2023/05/09 02:59:09;;;;;;;11.13;10.13;;;20.40;60.00;;;;;;5072164;28;20224;-49
2023/05/09 03:01:35;;;;;;;15.30;12.03;;;20.40;59.60;;;;;;5073094;28;20195;-52
2023/05/09 03:04:00;;;;;;;10.97;9.97;;;20.40;59.40;;;;;;5073494;28;20224;-51
2023/05/09 03:06:26;;;;;;;13.57;12.30;;;20.50;59.30;;;;;;5072771;28;20207;-51
2023/05/09 03:08:52;;;;;;;14.77;13.27;;;20.50;59.10;;;;;;5078370;28;20194;-50
2023/05/09 03:11:17;;;;;;;13.27;12.07;;;20.40;59.10;;;;;;5071528;28;20192;-51
2023/05/09 03:13:43;;;;;;;14.10;12.63;;;20.40;59.20;;;;;;5072968;28;20973;-51
2023/05/09 03:16:12;;;;;;;13.37;12.17;;;20.40;59.20;;;;;;5063020;28;20269;-51
2023/05/09 03:18:38;;;;;;;13.10;11.80;;;20.30;59.10;;;;;;5072325;28;20199;-51
2023/05/09 03:21:04;;;;;;;13.13;11.83;;;20.10;59.60;;;;;;5070715;28;20971;-52
2023/05/09 03:23:30;;;;;;;16.93;15.13;;;20.10;59.90;;;;;;5067966;28;20438;-50
2023/05/09 03:25:55;;;;;;;14.53;12.47;;;20.00;60.00;;;;;;5069499;28;20200;-51
2023/05/09 03:28:21;;;;;;;14.93;13.53;;;19.90;60.50;;;;;;5068541;28;20222;-51
2023/05/09 03:30:46;;;;;;;13.97;12.67;;;19.90;60.90;;;;;;5068591;28;20192;-52
2023/05/09 03:33:12;;;;;;;15.80;14.20;;;19.90;61.00;;;;;;5072898;28;20195;-50
2023/05/09 03:35:37;;;;;;;15.33;13.73;;;19.90;60.80;;;;;;5071172;28;20972;-52
2023/05/09 03:38:03;;;;;;;14.90;13.60;;;19.90;60.80;;;;;;5067195;28;20619;-51
2023/05/09 03:40:28;;;;;;;15.63;14.20;;;19.70;61.20;;;;;;5062977;28;20200;-53
2023/05/09 03:42:57;;;;;;;17.33;15.17;;;19.40;62.50;;;;;;5064516;28;20274;-51
2023/05/09 03:45:23;;;;;;;15.97;14.47;;;19.40;63.20;;;;;;5066808;28;20196;-53
2023/05/09 03:47:48;;;;;;;16.23;14.60;;;19.30;63.40;;;;;;5063263;28;20801;-53
2023/05/09 03:50:14;;;;;;;14.97;13.07;;;19.10;63.90;;;;;;5068947;28;20196;-53
2023/05/09 03:52:39;;;;;;;15.20;13.80;;;19.00;64.80;;;;;;5065315;28;20227;-52
2023/05/09 03:55:06;;;;;;;16.00;14.30;;;19.10;64.80;;;;;;5059328;28;21658;-53
2023/05/09 03:57:33;;;;;;;15.07;13.67;;;19.20;64.00;;;;;;5067296;28;20227;-50
2023/05/09 03:59:58;;;;;;;16.30;14.70;;;19.00;64.60;;;;;;5065552;28;20569;-51
2023/05/09 04:02:24;;;;;;;16.17;14.47;;;19.10;64.40;;;;;;5063796;28;20436;-50
2023/05/09 04:04:51;;;;;;;15.10;13.13;;;18.90;65.20;;;;;;5065920;28;20196;-50
2023/05/09 04:07:18;;;;;;;17.30;15.60;;;18.80;65.80;;;;;;5066628;28;20208;-52
2023/05/09 04:09:43;;;;;;;16.43;14.37;;;18.90;65.50;;;;;;5061443;28;20541;-53
2023/05/09 04:12:09;;;;;;;14.23;12.73;;;18.80;65.80;;;;;;5056609;28;20985;-54
2023/05/09 04:14:35;;;;;;;15.50;13.83;;;18.60;66.20;;;;;;5057098;28;20192;-53
2023/05/09 04:17:00;;;;;;;16.90;15.30;;;18.50;67.00;;;;;;5066248;28;20247;-52
2023/05/09 04:19:26;;;;;;;17.10;15.50;;;18.50;67.30;;;;;;5063516;28;20288;-50
2023/05/09 04:21:52;;;;;;;16.80;15.03;;;18.80;66.70;;;;;;5060905;28;20191;-54
2023/05/09 04:24:17;;;;;;;19.40;17.57;;;19.10;65.80;;;;;;5060013;28;20196;-53
2023/05/09 04:26:43;;;;;;;18.50;16.40;;;19.10;64.40;;;;;;5062360;28;20199;-54
2023/05/09 04:29:09;;;;;;;19.60;17.03;;;18.80;65.40;;;;;;5070399;28;20191;-51
2023/05/09 04:31:34;;;;;;;18.10;16.27;;;18.50;66.30;;;;;;5064159;28;20651;-55
2023/05/09 04:34:00;;;;;;;19.00;16.07;;;18.30;68.00;;;;;;5060809;28;20188;-55
2023/05/09 04:36:26;;;;;;;19.93;17.60;;;18.30;68.20;;;;;;5070088;28;20235;-54
2023/05/09 04:38:52;;;;;;;21.10;18.87;;;18.30;67.70;;;;;;5065811;28;20195;-53
2023/05/09 04:41:17;;;;;;;19.97;17.90;;;18.20;68.30;;;;;;5060898;28;20706;-54
2023/05/09 04:43:43;;;;;;;20.00;17.93;;;18.10;67.70;;;;;;5060689;28;20204;-55
2023/05/09 04:46:08;;;;;;;25.93;18.20;;;18.20;68.20;;;;;;5061199;28;20199;-53
2023/05/09 04:48:34;;;;;;;19.93;17.97;;;18.20;68.00;;;;;;5069661;28;20341;-53
2023/05/09 04:51:01;;;;;;;21.03;18.83;;;18.20;68.30;;;;;;5070988;28;20192;-52
2023/05/09 04:53:27;;;;;;;20.57;18.47;;;18.20;68.10;;;;;;5070249;28;20468;-52
2023/05/09 04:55:53;;;;;;;20.80;18.70;;;18.20;68.30;;;;;;5070670;28;20452;-53
2023/05/09 04:58:19;;;;;;;20.77;18.40;;;18.20;68.50;;;;;;5071474;28;20434;-54
2023/05/09 05:00:45;;;;;;;22.47;20.10;;;18.00;68.80;;;;;;5062532;28;20422;-52
2023/05/09 05:03:11;;;;;;;19.43;17.33;;;18.10;69.20;;;;;;5069894;28;20434;-52
2023/05/09 05:05:37;;;;;;;19.93;17.83;;;18.20;69.30;;;;;;5071710;28;20433;-53
2023/05/09 05:08:02;;;;;;;20.13;18.00;;;18.10;69.00;;;;;;5070423;28;20188;-52
2023/05/09 05:10:29;;;;;;;19.40;17.33;;;18.20;68.90;;;;;;5070285;28;20203;-52
2023/05/09 05:12:55;;;;;;;23.20;18.33;;;18.20;68.90;;;;;;5063348;28;20678;-53
2023/05/09 05:15:20;;;;;;;20.47;18.47;;;18.40;68.60;;;;;;5071502;28;20418;-54
2023/05/09 05:17:46;;;;;;;21.30;19.10;;;18.50;68.20;;;;;;5067727;28;20322;-54
2023/05/09 05:20:12;;;;;;;24.87;18.90;;;18.30;68.20;;;;;;5071640;28;20196;-53
2023/05/09 05:22:37;;;;;;;20.70;18.50;;;18.30;68.50;;;;;;5067557;28;20875;-50
2023/05/09 05:25:03;;;;;;;19.57;16.73;;;18.30;69.00;;;;;;5059847;28;20711;-52
2023/05/09 05:27:29;;;;;;;20.73;17.13;;;18.40;69.20;;;;;;5066340;28;20223;-51
2023/05/09 05:29:55;;;;;;;21.60;18.90;;;18.60;68.60;;;;;;5067215;28;20602;-53
2023/05/09 05:32:20;;;;;;;20.53;18.33;;;18.70;68.00;;;;;;5062604;28;20214;-50
2023/05/09 05:34:46;;;;;;;19.10;17.10;;;18.70;67.50;;;;;;5066670;28;20211;-50
2023/05/09 05:37:12;;;;;;;21.57;19.37;;;18.70;67.50;;;;;;5059255;28;20239;-51
2023/05/09 05:39:37;;;;;;;22.20;19.90;;;18.80;67.40;;;;;;5066620;28;20202;-51
2023/05/09 05:42:03;;;;;;;21.37;19.13;;;18.90;66.90;;;;;;5064470;28;20188;-52
2023/05/09 05:44:28;;;;;;;20.77;18.27;;;18.80;67.00;;;;;;5064162;28;20261;-50
2023/05/09 05:46:54;;;;;;;22.27;19.93;;;18.80;67.20;;;;;;5062615;28;20188;-50
2023/05/09 05:49:19;;;;;;;22.60;20.10;;;18.80;67.00;;;;;;5068432;28;20192;-53
2023/05/09 05:51:45;;;;;;;22.13;19.93;;;18.50;68.30;;;;;;5062921;28;20194;-51
2023/05/09 05:54:10;;;;;;;22.33;19.93;;;18.50;69.10;;;;;;5067908;28;20235;-51
2023/05/09 05:56:36;;;;;;;23.30;20.73;;;18.60;68.70;;;;;;5069075;28;20223;-53
2023/05/09 05:59:01;;;;;;;23.60;20.17;;;18.40;69.00;;;;;;5065896;28;20194;-51
2023/05/09 06:01:27;;;;;;;21.60;18.90;;;18.50;69.60;;;;;;5064764;28;20192;-51
2023/05/09 06:03:55;;;;;;;23.43;19.53;;;18.40;70.40;;;;;;5068231;28;20667;-51
2023/05/09 06:06:21;;;;;;;24.80;21.20;;;18.10;71.70;;;;;;5061159;28;20620;-50
2023/05/09 06:08:50;;;;;;;22.17;19.17;;;18.30;70.30;;;;;;5067123;28;20537;-54
2023/05/09 06:11:16;;;;;;;21.63;19.33;;;18.60;70.40;;;;;;5070778;28;20199;-50
2023/05/09 06:13:42;;;;;;;22.93;20.30;;;18.60;68.60;;;;;;5062729;28;20463;-53
2023/05/09 06:16:08;;;;;;;21.73;19.60;;;18.70;68.60;;;;;;5063188;28;20521;-51
2023/05/09 06:18:38;;;;;;;23.60;20.97;;;18.90;67.70;;;;;;5070250;28;20195;-51
2023/05/09 06:21:05;;;;;;;20.87;18.87;;;18.80;68.00;;;;;;5069693;28;20434;-51
2023/05/09 06:23:31;;;;;;;21.43;19.17;;;18.90;67.40;;;;;;5067167;28;20446;-51
2023/05/09 06:25:57;;;;;;;22.63;19.13;;;19.20;66.50;;;;;;5064286;28;20507;-52
2023/05/09 06:28:22;;;;;;;20.90;18.70;;;19.40;66.10;;;;;;5059013;28;20210;-55
2023/05/09 06:30:48;;;;;;;21.40;19.20;;;19.30;64.70;;;;;;5069785;28;20199;-53
2023/05/09 06:33:13;;;;;;;24.23;20.87;;;19.00;66.20;;;;;;5069253;28;20191;-53
2023/05/09 06:35:39;;;;;;;22.37;19.97;;;19.00;67.00;;;;;;5070583;28;20662;-50
2023/05/09 06:38:05;;;;;;;20.40;18.30;;;19.40;66.30;;;;;;5060920;28;20651;-50
2023/05/09 06:40:31;;;;;;;23.50;20.53;;;19.40;65.40;;;;;;5062340;28;20716;-54
2023/05/09 06:42:57;;;;;;;21.23;18.80;;;19.60;64.70;;;;;;5068114;28;20442;-53
2023/05/09 06:45:22;;;;;;;20.90;18.67;;;19.70;64.40;;;;;;5052334;28;20196;-55
2023/05/09 06:47:48;;;;;;;19.83;17.73;;;19.90;64.30;;;;;;5058929;28;20561;-51
2023/05/09 06:50:13;;;;;;;20.47;18.43;;;20.20;62.80;;;;;;5068368;28;20593;-54
2023/05/09 06:52:39;;;;;;;21.80;19.60;;;20.40;62.00;;;;;;5068980;28;20227;-50
2023/05/09 06:55:05;;;;;;;21.30;19.10;;;20.70;61.30;;;;;;5066335;28;20235;-50
2023/05/09 06:57:31;;;;;;;21.03;18.93;;;20.80;60.30;;;;;;5066410;28;20224;-52
2023/05/09 06:59:56;;;;;;;22.57;19.63;;;21.10;59.70;;;;;;5064047;28;20522;-50
2023/05/09 07:02:22;;;;;;;22.73;20.43;;;21.20;59.80;;;;;;5068704;28;20974;-50
2023/05/09 07:04:47;;;;;;;20.87;18.70;;;21.30;58.50;;;;;;5067339;28;22617;-51
2023/05/09 07:07:13;;;;;;;20.63;18.50;;;21.40;58.60;;;;;;5060594;28;20196;-53
2023/05/09 07:09:39;;;;;;;23.17;20.27;;;21.60;58.20;;;;;;5069963;28;20202;-50
2023/05/09 07:12:04;;;;;;;21.07;18.70;;;21.60;57.30;;;;;;5060963;28;20283;-54
2023/05/09 07:14:30;;;;;;;20.40;18.40;;;21.70;57.70;;;;;;5069711;28;20223;-54
2023/05/09 07:16:56;;;;;;;18.20;16.40;;;21.80;57.30;;;;;;5056484;28;20619;-50
2023/05/09 07:19:21;;;;;;;23.53;19.83;;;22.00;56.80;;;;;;5066832;28;20238;-51
2023/05/09 07:21:47;;;;;;;19.93;17.93;;;22.00;56.80;;;;;;5069114;28;20281;-49
2023/05/09 07:24:12;;;;;;;19.77;17.77;;;22.10;56.50;;;;;;5067371;28;20200;-52
2023/05/09 07:26:38;;;;;;;20.60;18.50;;;22.20;56.00;;;;;;5069687;28;20655;-51
2023/05/09 07:29:03;;;;;;;20.60;18.53;;;22.00;55.90;;;;;;5070114;28;20586;-53
2023/05/09 07:31:29;;;;;;;18.80;16.80;;;22.10;56.70;;;;;;5068652;28;20746;-52
2023/05/09 07:33:55;;;;;;;21.47;18.47;;;22.40;56.40;;;;;;5067017;28;20260;-53
2023/05/09 07:36:20;;;;;;;19.57;17.53;;;22.40;55.70;;;;;;5061811;28;20230;-52
2023/05/09 07:38:47;;;;;;;21.33;19.23;;;22.50;55.70;;;;;;5072033;28;20203;-52
2023/05/09 07:41:13;;;;;;;20.80;18.80;;;22.60;55.70;;;;;;5069954;28;20188;-54
2023/05/09 07:43:39;;;;;;;21.37;19.27;;;22.70;55.30;;;;;;5057740;28;20972;-51
2023/05/09 07:46:04;;;;;;;21.97;19.83;;;22.70;55.70;;;;;;5062669;28;20261;-54
2023/05/09 07:48:30;;;;;;;21.13;18.90;;;22.80;54.80;;;;;;5066988;28;20612;-54
2023/05/09 07:50:57;;;;;;;20.63;18.53;;;23.00;54.40;;;;;;5059497;28;20254;-50
2023/05/09 07:53:22;;;;;;;20.00;17.90;;;23.00;54.30;;;;;;5070379;28;20231;-51
2023/05/09 07:55:49;;;;;;;20.37;17.97;;;23.20;53.80;;;;;;5077715;28;20466;-53
2023/05/09 07:58:15;;;;;;;18.97;17.07;;;23.30;53.50;;;;;;5068362;28;20200;-49
2023/05/09 08:00:41;;;;;;;20.37;18.07;;;23.30;53.30;;;;;;5073251;28;20430;-52
2023/05/09 08:03:07;;;;;;;17.87;16.27;;;23.40;53.00;;;;;;5073013;28;20955;-52
2023/05/09 08:05:32;;;;;;;18.90;17.10;;;23.40;52.80;;;;;;5070764;28;20718;-53
2023/05/09 08:07:58;;;;;;;18.83;16.87;;;23.60;53.10;;;;;;5066840;28;20192;-52
2023/05/09 08:10:25;;;;;;;17.70;15.80;;;23.80;52.80;;;;;;5073035;28;20627;-53
2023/05/09 08:12:51;;;;;;;17.77;16.00;;;23.80;51.70;;;;;;5073028;28;20196;-54
2023/05/09 08:15:17;;;;;;;16.13;14.73;;;23.70;51.90;;;;;;5072756;28;20430;-51
2023/05/09 08:17:42;;;;;;;16.93;15.13;;;24.00;52.00;;;;;;5069629;28;20326;-54
2023/05/09 08:20:09;;;;;;;16.90;15.30;;;24.10;50.70;;;;;;5069374;28;20196;-53
2023/05/09 08:22:38;;;;;;;17.87;16.13;;;23.90;50.70;;;;;;5071847;28;20195;-53
2023/05/09 08:25:04;;;;;;;17.30;15.50;;;24.10;50.90;;;;;;5063294;28;20434;-54
2023/05/09 08:27:29;;;;;;;15.63;14.23;;;24.40;49.90;;;;;;5068899;28;20461;-51
2023/05/09 08:29:55;;;;;;;16.27;14.67;;;24.60;49.20;;;;;;5070031;28;20632;-54
2023/05/09 08:32:20;;;;;;;16.67;15.17;;;24.70;49.30;;;;;;5071303;28;20195;-54
2023/05/09 08:34:46;;;;;;;14.57;13.13;;;24.50;48.50;;;;;;5070145;28;20604;-53
2023/05/09 08:37:11;;;;;;;15.70;14.20;;;24.40;49.10;;;;;;5067019;28;20219;-52
2023/05/09 08:39:37;;;;;;;15.33;14.03;;;24.50;48.80;;;;;;5062028;28;20200;-54
2023/05/09 08:42:03;;;;;;;14.53;13.13;;;24.80;48.20;;;;;;5072261;28;20662;-53
2023/05/09 08:44:30;;;;;;;16.27;12.97;;;24.80;47.80;;;;;;5066959;28;20200;-53
2023/05/09 08:46:59;;;;;;;12.67;11.47;;;24.80;47.10;;;;;;5062830;28;20812;-53
2023/05/09 08:49:25;;;;;;;14.47;13.10;;;24.80;47.60;;;;;;5062121;28;20901;-55
2023/05/09 08:51:51;;;;;;;12.57;11.37;;;24.90;47.30;;;;;;5071133;28;20491;-55
2023/05/09 08:54:18;;;;;;;11.40;10.30;;;25.10;47.10;;;;;;5063476;28;20466;-58
2023/05/09 08:56:43;;;;;;;12.17;11.10;;;25.20;47.70;;;;;;5056191;28;20230;-57
2023/05/09 08:59:09;;;;;;;11.30;10.10;;;25.50;46.40;;;;;;5057897;28;20446;-49
2023/05/09 09:01:35;;;;;;;10.27;9.27;;;25.40;45.10;;;;;;5064716;28;20246;-56
2023/05/09 09:04:05;;;;;;;8.67;7.90;;;25.40;46.00;;;;;;5057620;28;20196;-56
2023/05/09 09:06:33;;;;;;;8.20;7.50;;;25.50;45.60;;;;;;5063598;28;20446;-58
2023/05/09 09:08:59;;;;;;;8.80;8.10;;;25.50;45.10;;;;;;5064506;28;20803;-55
2023/05/09 09:11:27;;;;;;;8.20;7.50;;;25.60;44.40;;;;;;5056708;28;20521;-55
2023/05/09 09:13:53;;;;;;;7.33;6.10;;;25.70;44.60;;;;;;5061810;28;20439;-56
2023/05/09 09:16:20;;;;;;;7.00;6.47;;;25.90;43.60;;;;;;5063352;28;20539;-56
2023/05/09 09:18:47;;;;;;;6.13;5.73;;;26.00;43.10;;;;;;5058460;28;20291;-57
2023/05/09 09:21:17;;;;;;;7.40;6.70;;;26.30;43.40;;;;;;5067968;28;20438;-58
2023/05/09 09:23:46;;;;;;;6.17;5.67;;;26.70;42.60;;;;;;5067712;28;20485;-58
2023/05/09 09:26:12;;;;;;;7.30;6.30;;;26.90;42.00;;;;;;5069670;28;20434;-56
2023/05/09 09:28:38;;;;;;;6.00;5.50;;;27.00;41.00;;;;;;5063136;28;21013;-57
2023/05/09 09:31:19;;;;;;;5.47;4.97;;;27.20;41.40;;;;;;5058915;28;20663;-56
2023/05/09 09:33:44;;;;;;;5.93;5.43;;;27.40;41.10;;;;;;5064008;28;20823;-53
2023/05/09 09:36:10;;;;;;;5.50;5.10;;;27.60;40.70;;;;;;5062842;28;20497;-57
2023/05/09 09:38:40;;;;;;;6.10;5.50;;;27.60;39.90;;;;;;5067588;28;20188;-58
2023/05/09 09:41:06;;;;;;;5.83;5.33;;;27.70;39.30;;;;;;5064400;28;20195;-57
2023/05/09 09:43:32;;;;;;;6.00;5.50;;;27.80;40.10;;;;;;5056711;28;20472;-59
2023/05/09 09:46:05;;;;;;;6.00;5.60;;;27.90;39.70;;;;;;5060439;28;20189;-53
2023/05/09 09:48:36;;;;;;;5.47;5.07;;;27.50;39.70;;;;;;5066825;28;20210;-56
2023/05/09 09:51:11;;;;;;;8.00;7.40;;;27.50;40.20;;;;;;5062895;28;20443;-57
2023/05/09 09:53:43;;;;;;;6.53;6.03;;;27.50;39.60;;;;;;5065303;28;20491;-56
2023/05/09 09:56:09;;;;;;;7.97;5.97;;;27.50;40.50;;;;;;5060706;28;20801;-57
2023/05/09 09:58:35;;;;;;;6.93;6.37;;;27.90;40.40;;;;;;5068335;28;20962;-55
2023/05/09 10:01:08;;;;;;;8.83;6.83;;;28.20;40.50;;;;;;5064302;28;20836;-56
2023/05/09 10:03:35;;;;;;;7.87;7.23;;;28.30;39.30;;;;;;5067062;28;20450;-57
2023/05/09 10:06:01;;;;;;;6.30;5.70;;;28.50;39.90;;;;;;5064208;28;20438;-57
2023/05/09 10:08:27;;;;;;;7.33;6.73;;;28.70;39.50;;;;;;5073087;28;20445;-57
2023/05/09 10:10:52;;;;;;;6.83;6.33;;;28.80;38.60;;;;;;5063503;28;20437;-57
2023/05/09 10:13:19;;;;;;;8.00;7.30;;;28.70;39.50;;;;;;5064540;28;20200;-57
2023/05/09 10:15:48;;;;;;;7.47;6.87;;;28.90;39.10;;;;;;5063829;28;20254;-57
2023/05/09 10:18:18;;;;;;;9.07;8.20;;;29.00;39.10;;;;;;5059460;28;20451;-56
2023/05/09 10:20:45;;;;;;;8.90;8.10;;;29.10;38.30;;;;;;5065942;28;20454;-57
2023/05/09 10:23:14;;;;;;;7.77;6.83;;;29.20;38.50;;;;;;5061428;28;20417;-56
2023/05/09 10:25:58;;;;;;;7.63;7.03;;;29.10;38.60;;;;;;5062876;28;20441;-57
2023/05/09 10:28:33;;;;;;;8.97;8.27;;;29.30;38.50;;;;;;5057635;28;21041;-57
2023/05/09 10:31:10;;;;;;;8.80;8.00;;;29.50;38.10;;;;;;5066225;28;20807;-57
2023/05/09 10:33:45;;;;;;;8.47;7.67;;;29.10;39.20;;;;;;5066778;28;20433;-57
2023/05/09 10:36:11;;;;;;;6.90;6.30;;;29.20;38.80;;;;;;5064563;28;20558;-57
2023/05/09 10:38:38;;;;;;;8.10;7.37;;;29.50;39.10;;;;;;5064268;28;20438;-59
2023/05/09 10:41:04;;;;;;;8.43;7.73;;;29.40;38.40;;;;;;5057940;28;20458;-58
2023/05/09 10:43:31;;;;;;;9.10;8.40;;;29.00;39.80;;;;;;5058080;28;20445;-59
2023/05/09 10:45:57;;;;;;;6.97;6.47;;;28.90;38.70;;;;;;5068016;28;20434;-55
2023/05/09 10:48:24;;;;;;;7.27;6.77;;;28.80;39.40;;;;;;5069800;28;20517;-57
2023/05/09 10:50:49;;;;;;;7.73;7.13;;;28.70;39.60;;;;;;5063639;28;20503;-56
2023/05/09 10:53:20;;;;;;;6.80;6.30;;;28.60;39.30;;;;;;5058925;28;20909;-57
2023/05/09 10:55:46;;;;;;;5.33;4.97;;;28.50;39.60;;;;;;5064439;28;20659;-57
2023/05/09 10:58:30;;;;;;;4.73;4.30;;;27.60;41.20;;;;;;5063886;28;20481;-55
2023/05/09 11:01:00;;;;;;;5.10;4.67;;;27.50;41.60;;;;;;5062093;28;20238;-57
2023/05/09 11:03:27;;;;;;;4.77;4.47;;;27.90;41.60;;;;;;5069341;28;20452;-55
2023/05/09 11:05:56;;;;;;;5.33;4.37;;;28.40;41.20;;;;;;5063621;28;20443;-56
2023/05/09 11:08:29;;;;;;;4.77;4.47;;;28.80;40.40;;;;;;5067501;28;20442;-57
2023/05/09 11:11:05;;;;;;;4.67;4.37;;;28.80;39.70;;;;;;5065400;28;20446;-57
2023/05/09 11:13:35;;;;;;;4.57;4.27;;;29.20;38.80;;;;;;5065635;28;20527;-55
2023/05/09 11:16:00;;;;;;;3.70;3.50;;;29.50;38.60;;;;;;5072869;28;20426;-58
2023/05/09 11:18:27;;;;;;;5.40;4.90;;;29.40;38.10;;;;;;5069424;28;20434;-57
2023/05/09 11:20:54;;;;;;;4.17;3.87;;;29.50;38.30;;;;;;5068284;28;20200;-57
2023/05/09 11:23:22;;;;;;;3.70;3.47;;;29.60;38.60;;;;;;5058922;28;20900;-57
2023/05/09 11:25:48;;;;;;;4.43;4.03;;;29.50;38.20;;;;;;5067008;28;20473;-57
2023/05/09 11:28:31;;;;;;;4.40;4.10;;;29.30;38.50;;;;;;5066557;28;20442;-56
2023/05/09 11:31:10;;;;;;;5.90;5.07;;;29.20;39.50;;;;;;5070889;28;20445;-59
2023/05/09 11:33:36;;;;;;;5.07;4.70;;;28.70;39.80;;;;;;5073076;28;20454;-56
2023/05/09 11:36:34;;;;;;;5.50;5.00;;;28.50;40.70;;;;;;5066695;28;20438;-56
2023/05/09 11:39:03;;;;;;;5.33;4.93;;;28.50;40.60;;;;;;5061657;28;20456;-57
2023/05/09 11:41:29;;;;;;;6.20;5.70;;;28.70;40.70;;;;;;5066036;28;20457;-55
2023/05/09 11:43:56;;;;;;;5.60;5.20;;;28.70;40.50;;;;;;5063518;28;20446;-54
2023/05/09 11:46:22;;;;;;;6.40;5.80;;;28.50;40.80;;;;;;5071170;28;21038;-55
2023/05/09 11:48:48;;;;;;;6.97;6.43;;;28.10;41.70;;;;;;5070255;28;20528;-55
2023/05/09 11:51:17;;;;;;;7.43;6.73;;;27.90;41.80;;;;;;5071763;28;20200;-55
2023/05/09 11:53:49;;;;;;;7.37;6.73;;;27.70;42.30;;;;;;5071293;28;20239;-56
2023/05/09 11:56:15;;;;;;;6.30;5.80;;;27.40;42.40;;;;;;5072346;28;20481;-56
2023/05/09 11:58:41;;;;;;;6.50;6.00;;;27.60;42.80;;;;;;5065433;28;20797;-54
2023/05/09 12:01:07;;;;;;;6.10;5.50;;;27.80;42.30;;;;;;5071821;28;20201;-55
2023/05/09 12:03:32;;;;;;;7.40;6.80;;;27.80;42.20;;;;;;5064513;28;20446;-56
2023/05/09 12:05:59;;;;;;;7.60;6.90;;;28.00;42.50;;;;;;5072971;28;20208;-55
2023/05/09 12:08:25;;;;;;;8.30;7.00;;;28.10;41.90;;;;;;5060379;28;20192;-55
2023/05/09 12:10:51;;;;;;;6.90;6.40;;;27.70;42.40;;;;;;5065732;28;21001;-56
2023/05/09 12:13:18;;;;;;;7.33;6.73;;;27.50;43.30;;;;;;5073887;28;20513;-56
2023/05/09 12:15:43;;;;;;;7.80;7.10;;;27.30;43.30;;;;;;5064619;28;20184;-56
2023/05/09 12:18:09;;;;;;;7.97;7.33;;;26.70;43.40;;;;;;5067583;28;20491;-55
2023/05/09 12:20:46;;;;;;;7.40;6.80;;;26.30;44.30;;;;;;5067105;28;20275;-55
2023/05/09 12:23:13;;;;;;;6.23;5.73;;;26.60;44.60;;;;;;5063453;28;20291;-55
2023/05/09 12:25:51;;;;;;;6.20;5.20;;;27.10;44.00;;;;;;5063560;28;20510;-55
2023/05/09 12:28:18;;;;;;;5.90;5.40;;;27.50;43.50;;;;;;5066321;28;20465;-53
2023/05/09 12:30:44;;;;;;;6.23;5.63;;;28.00;42.90;;;;;;5064090;28;20450;-54
2023/05/09 12:33:11;;;;;;;7.63;6.83;;;28.30;42.00;;;;;;5051805;28;20490;-55